Time;durP1;ratioP1;P1;durP2;ratioP2;P2;SDS_P1;SDS_P2;PMS_P1;PMS_P2;Temp;Humidity;BMP_temperature;BMP_pressure;BME280_temperature;BME280_humidity;BME280_pressure;Samples;Min_cycle;Max_cycle;Signal;HPM_P1;HPM_P2
2023/06/19 01:56:15;;;;;;;29.03;21.90;;;16.90;99.90;;;;;;1911799;74;26844;-91
2023/06/19 04:10:27;;;;;;;28.10;18.30;;;17.10;99.90;;;;;;1942122;72;26588;-92
2023/06/19 04:13:26;;;;;;;24.07;15.10;;;17.00;99.90;;;;;;1921134;72;25311;-92
2023/06/19 04:16:17;;;;;;;28.40;16.97;;;17.00;99.90;;;;;;1928758;72;25146;-92
2023/06/19 04:19:06;;;;;;;29.07;16.87;;;16.90;99.90;;;;;;1929639;72;25293;-92
2023/06/19 04:21:55;;;;;;;28.53;17.83;;;16.80;99.90;;;;;;1903579;74;25296;-92
2023/06/19 04:24:45;;;;;;;21.80;15.70;;;16.80;99.90;;;;;;1890831;74;25399;-92
2023/06/19 04:27:54;;;;;;;27.40;16.37;;;16.90;99.90;;;;;;1902211;74;25733;-92
2023/06/19 04:30:44;;;;;;;26.10;14.53;;;16.80;99.90;;;;;;1861988;75;25751;-93
2023/06/19 04:33:37;;;;;;;22.53;15.77;;;16.70;99.90;;;;;;1838472;77;25725;-92
2023/06/19 04:36:31;;;;;;;28.80;15.57;;;16.70;99.90;;;;;;1888966;73;25594;-92
2023/06/19 09:47:58;;;;;;;24.60;16.70;;;19.90;99.90;;;;;;1907663;73;25788;-92
2023/06/19 09:55:15;;;;;;;25.17;17.47;;;20.00;99.90;;;;;;1880847;73;25236;-92
2023/06/19 10:15:34;;;;;;;27.87;18.27;;;20.50;99.90;;;;;;1876793;76;26627;-93
2023/06/19 10:19:10;;;;;;;27.03;18.40;;;21.70;99.90;;;;;;1799224;79;25235;-93
2023/06/19 10:50:43;;;;;;;23.67;15.83;;;22.00;99.90;;;;;;1957630;72;27922;-92
2023/06/19 10:53:49;;;;;;;21.40;15.03;;;22.10;99.90;;;;;;1916607;73;25378;-92
2023/06/19 10:57:02;;;;;;;22.60;14.73;;;22.00;99.90;;;;;;1919625;73;25758;-92
2023/06/19 10:59:53;;;;;;;21.57;15.40;;;21.80;99.90;;;;;;1919200;73;25685;-93
2023/06/19 11:02:56;;;;;;;21.00;16.33;;;21.70;99.90;;;;;;1930871;73;25729;-93
2023/06/19 11:05:48;;;;;;;24.73;16.23;;;21.80;99.90;;;;;;1919769;73;25290;-94
2023/06/19 11:08:45;;;;;;;23.33;16.87;;;22.30;99.90;;;;;;1931889;73;25652;-91
2023/06/19 11:11:46;;;;;;;28.90;14.70;;;22.60;99.90;;;;;;1926747;73;25310;-93
2023/06/19 11:14:49;;;;;;;23.20;14.07;;;22.80;99.90;;;;;;1895309;73;25314;-93
2023/06/19 11:21:41;;;;;;;19.90;15.10;;;22.60;99.90;;;;;;1940857;73;25697;-94
2023/06/19 11:24:59;;;;;;;21.53;14.80;;;22.30;99.90;;;;;;1930497;73;25693;-93
2023/06/19 11:45:32;;;;;;;12.17;8.77;;;22.40;99.90;;;;;;1930619;72;26465;-92
2023/06/19 14:00:29;;;;;;;7.43;6.30;;;22.60;99.90;;;;;;1863386;75;25263;-93
2023/06/19 14:51:37;;;;;;;9.90;7.10;;;22.10;99.90;;;;;;1951159;72;30996;-91
2023/06/19 15:02:17;;;;;;;8.83;6.77;;;22.30;99.90;;;;;;1911123;73;25242;-90
2023/06/19 15:05:25;;;;;;;11.63;6.40;;;21.80;99.90;;;;;;1870902;75;25832;-91
2023/06/19 15:12:25;;;;;;;14.97;7.00;;;21.30;99.90;;;;;;1841414;74;25165;-93
2023/06/19 15:15:40;;;;;;;8.10;6.87;;;21.20;99.90;;;;;;1916653;74;25254;-93
2023/06/19 15:19:44;;;;;;;7.60;6.30;;;21.20;99.90;;;;;;1919607;73;25163;-92
2023/06/19 15:23:42;;;;;;;7.53;6.20;;;21.00;99.90;;;;;;1928043;74;25205;-91
2023/06/19 15:27:19;;;;;;;16.73;6.97;;;21.00;99.90;;;;;;1861893;75;25271;-92
2023/06/19 15:35:09;;;;;;;10.30;6.97;;;20.90;99.90;;;;;;1887778;75;25280;-91
2023/06/19 19:38:16;;;;;;;9.63;7.73;;;20.00;99.90;;;;;;1949687;72;26334;-90
2023/06/19 19:41:11;;;;;;;12.47;7.43;;;19.80;99.90;;;;;;1919872;72;25254;-91
2023/06/19 19:44:00;;;;;;;10.40;8.33;;;19.70;99.90;;;;;;1882795;75;25324;-90
2023/06/19 19:47:08;;;;;;;11.60;7.80;;;19.70;99.90;;;;;;1914471;75;25251;-89
2023/06/19 19:49:56;;;;;;;13.27;8.60;;;19.60;99.90;;;;;;1906547;73;25705;-90
2023/06/19 19:52:56;;;;;;;9.90;8.60;;;19.60;99.90;;;;;;1875222;75;25234;-90
2023/06/19 19:55:45;;;;;;;9.87;8.00;;;19.50;99.90;;;;;;1871223;75;25292;-90
2023/06/19 19:58:43;;;;;;;9.97;8.40;;;19.40;99.90;;;;;;1863544;74;25204;-90
2023/06/19 20:01:33;;;;;;;10.60;8.67;;;19.40;99.90;;;;;;1873077;75;25648;-90
2023/06/19 20:05:09;;;;;;;9.60;8.33;;;19.30;99.90;;;;;;1825107;76;25223;-91
2023/06/19 20:11:10;;;;;;;11.70;8.67;;;19.30;99.90;;;;;;1998077;71;26811;-90
2023/06/19 20:13:59;;;;;;;10.90;8.03;;;19.30;99.90;;;;;;1956489;72;25204;-90
2023/06/19 20:17:05;;;;;;;10.70;8.67;;;19.20;99.90;;;;;;1976780;72;25233;-90
2023/06/19 20:19:57;;;;;;;13.57;8.90;;;19.20;99.90;;;;;;1954350;72;25271;-90
2023/06/19 20:23:02;;;;;;;12.83;9.10;;;19.10;99.90;;;;;;1957763;72;25218;-92
2023/06/19 20:25:56;;;;;;;12.47;8.97;;;19.00;99.90;;;;;;1952560;71;25152;-90
2023/06/19 20:28:48;;;;;;;11.73;8.27;;;19.00;99.90;;;;;;1952112;72;25670;-90
2023/06/19 21:19:01;;;;;;;10.13;8.30;;;18.40;99.90;;;;;;1996378;71;27014;-91
2023/06/19 21:21:53;;;;;;;9.80;8.30;;;18.40;99.90;;;;;;1918586;73;25283;-91
2023/06/19 21:27:51;;;;;;;11.30;8.40;;;18.30;99.90;;;;;;1916878;74;25683;-90
2023/06/19 21:31:12;;;;;;;11.30;8.50;;;18.20;99.90;;;;;;1914827;74;25236;-90
2023/06/19 21:37:28;;;;;;;9.37;8.10;;;18.20;99.90;;;;;;1903271;74;25856;-90
2023/06/19 21:40:49;;;;;;;11.00;8.53;;;18.20;99.90;;;;;;1913775;74;25295;-89
2023/06/19 21:46:46;;;;;;;14.13;9.23;;;18.20;99.90;;;;;;1934100;72;27030;-89
2023/06/19 22:35:00;;;;;;;11.07;9.33;;;17.80;99.90;;;;;;1936690;72;26849;-90
2023/06/19 22:37:49;;;;;;;12.37;9.57;;;17.80;99.90;;;;;;1870596;76;25223;-90
2023/06/19 22:40:40;;;;;;;12.93;9.63;;;17.80;99.90;;;;;;1821634;76;25805;-90
2023/06/19 22:43:29;;;;;;;11.10;9.13;;;17.80;99.90;;;;;;1845369;76;25207;-90
2023/06/19 22:46:30;;;;;;;15.83;10.17;;;17.70;99.90;;;;;;1861395;76;25736;-91
2023/06/19 22:52:26;;;;;;;14.00;10.27;;;17.60;99.90;;;;;;1909184;74;27242;-89
2023/06/19 22:55:15;;;;;;;13.13;10.03;;;17.60;99.90;;;;;;1856921;76;25765;-91
2023/06/19 23:00:58;;;;;;;11.57;9.80;;;17.60;99.90;;;;;;1956712;72;27424;-89
2023/06/19 23:03:46;;;;;;;19.10;10.30;;;17.60;99.90;;;;;;1925146;73;25682;-89
2023/06/19 23:06:41;;;;;;;19.30;10.53;;;17.60;99.90;;;;;;1920983;72;25304;-89
2023/06/19 23:09:30;;;;;;;15.17;10.73;;;17.60;99.90;;;;;;1925554;73;25162;-89
